sensor_id;sensor_type;location;lat;lon;timestamp;pressure;altitude;pressure_sealevel;temperature;humidity
65151;BME280;51918;51.856;0.150;2022-08-18T00:03:36;100636.03;;;19.44;66.78
65151;BME280;51918;51.856;0.150;2022-08-18T00:08:37;100636.41;;;19.48;66.73
65151;BME280;51918;51.856;0.150;2022-08-18T00:13:39;100640.63;;;19.49;66.36
65151;BME280;51918;51.856;0.150;2022-08-18T00:18:39;100632.41;;;19.45;66.50
65151;BME280;51918;51.856;0.150;2022-08-18T00:23:40;100630.25;;;19.42;66.55
65151;BME280;51918;51.856;0.150;2022-08-18T00:28:42;100625.81;;;19.43;66.52
65151;BME280;51918;51.856;0.150;2022-08-18T00:33:42;100628.81;;;19.40;66.81
65151;BME280;51918;51.856;0.150;2022-08-18T00:38:43;100636.47;;;19.41;66.64
65151;BME280;51918;51.856;0.150;2022-08-18T00:43:47;100637.25;;;19.42;66.70
65151;BME280;51918;51.856;0.150;2022-08-18T00:48:48;100628.03;;;19.39;66.60
65151;BME280;51918;51.856;0.150;2022-08-18T00:53:52;100615.66;;;19.35;66.61
65151;BME280;51918;51.856;0.150;2022-08-18T00:59:00;100608.03;;;19.33;66.72
65151;BME280;51918;51.856;0.150;2022-08-18T01:04:07;100596.22;;;19.31;66.65
65151;BME280;51918;51.856;0.150;2022-08-18T01:09:09;100594.28;;;19.26;66.74
65151;BME280;51918;51.856;0.150;2022-08-18T01:14:12;100588.97;;;19.14;66.88
65151;BME280;51918;51.856;0.150;2022-08-18T01:19:15;100601.88;;;19.09;66.91
65151;BME280;51918;51.856;0.150;2022-08-18T01:24:21;100601.50;;;19.05;66.86
65151;BME280;51918;51.856;0.150;2022-08-18T01:29:22;100605.97;;;18.98;66.99
65151;BME280;51918;51.856;0.150;2022-08-18T01:34:25;100610.03;;;18.94;67.15
65151;BME280;51918;51.856;0.150;2022-08-18T01:39:27;100602.06;;;18.89;67.38
65151;BME280;51918;51.856;0.150;2022-08-18T01:44:28;100610.66;;;18.90;67.92
65151;BME280;51918;51.856;0.150;2022-08-18T01:49:29;100615.31;;;18.88;68.02
65151;BME280;51918;51.856;0.150;2022-08-18T01:54:31;100611.91;;;18.87;67.91
65151;BME280;51918;51.856;0.150;2022-08-18T01:59:32;100616.88;;;18.89;68.28
65151;BME280;51918;51.856;0.150;2022-08-18T02:04:33;100614.06;;;18.90;68.23
65151;BME280;51918;51.856;0.150;2022-08-18T02:09:37;100613.22;;;18.96;67.99
65151;BME280;51918;51.856;0.150;2022-08-18T02:14:39;100622.41;;;18.99;67.97
65151;BME280;51918;51.856;0.150;2022-08-18T02:19:42;100626.41;;;19.01;67.76
65151;BME280;51918;51.856;0.150;2022-08-18T02:24:45;100625.97;;;19.04;67.90
65151;BME280;51918;51.856;0.150;2022-08-18T02:29:46;100625.97;;;19.04;67.74
65151;BME280;51918;51.856;0.150;2022-08-18T02:34:47;100613.16;;;19.03;67.56
65151;BME280;51918;51.856;0.150;2022-08-18T02:39:49;100610.34;;;19.04;67.52
65151;BME280;51918;51.856;0.150;2022-08-18T02:44:49;100604.34;;;19.04;67.47
65151;BME280;51918;51.856;0.150;2022-08-18T02:49:50;100599.69;;;19.06;67.31
65151;BME280;51918;51.856;0.150;2022-08-18T02:54:52;100602.72;;;19.03;67.60
65151;BME280;51918;51.856;0.150;2022-08-18T02:59:53;100603.50;;;19.03;67.35
65151;BME280;51918;51.856;0.150;2022-08-18T03:04:53;100608.72;;;19.03;67.47
65151;BME280;51918;51.856;0.150;2022-08-18T03:09:55;100603.97;;;19.00;67.31
65151;BME280;51918;51.856;0.150;2022-08-18T03:14:56;100596.34;;;18.99;67.18
65151;BME280;51918;51.856;0.150;2022-08-18T03:19:56;100601.56;;;18.99;67.34
65151;BME280;51918;51.856;0.150;2022-08-18T03:24:58;100609.38;;;18.99;67.27
65151;BME280;51918;51.856;0.150;2022-08-18T03:29:59;100596.56;;;18.97;67.12
65151;BME280;51918;51.856;0.150;2022-08-18T03:34:59;100599.19;;;18.97;67.31
65151;BME280;51918;51.856;0.150;2022-08-18T03:40:01;100596.47;;;18.85;67.16
65151;BME280;51918;51.856;0.150;2022-08-18T03:45:02;100597.38;;;18.98;67.32
65151;BME280;51918;51.856;0.150;2022-08-18T03:50:04;100600.63;;;18.93;67.36
65151;BME280;51918;51.856;0.150;2022-08-18T03:55:07;100601.41;;;18.94;67.42
65151;BME280;51918;51.856;0.150;2022-08-18T04:00:10;100598.59;;;18.95;67.49
65151;BME280;51918;51.856;0.150;2022-08-18T04:05:11;100592.38;;;18.96;67.39
65151;BME280;51918;51.856;0.150;2022-08-18T04:10:13;100584.53;;;18.96;67.48
65151;BME280;51918;51.856;0.150;2022-08-18T04:15:14;100588.53;;;18.99;67.21
65151;BME280;51918;51.856;0.150;2022-08-18T04:20:14;100596.94;;;19.01;67.22
65151;BME280;51918;51.856;0.150;2022-08-18T04:25:17;100595.34;;;19.00;67.46
65151;BME280;51918;51.856;0.150;2022-08-18T04:30:17;100602.13;;;19.01;67.51
65151;BME280;51918;51.856;0.150;2022-08-18T04:35:17;100596.25;;;18.87;67.12
65151;BME280;51918;51.856;0.150;2022-08-18T04:40:19;100584.25;;;19.04;67.39
65151;BME280;51918;51.856;0.150;2022-08-18T04:45:20;100597.09;;;19.06;67.28
65151;BME280;51918;51.856;0.150;2022-08-18T04:50:20;100593.59;;;18.94;67.16
65151;BME280;51918;51.856;0.150;2022-08-18T04:55:22;100584.63;;;19.08;67.16
65151;BME280;51918;51.856;0.150;2022-08-18T05:00:23;100590.06;;;19.06;67.05
65151;BME280;51918;51.856;0.150;2022-08-18T05:05:23;100588.75;;;18.97;67.33
65151;BME280;51918;51.856;0.150;2022-08-18T05:10:25;100587.28;;;19.01;67.14
65151;BME280;51918;51.856;0.150;2022-08-18T05:15:26;100582.88;;;19.02;67.06
65151;BME280;51918;51.856;0.150;2022-08-18T05:20:26;100583.44;;;18.85;67.25
65151;BME280;51918;51.856;0.150;2022-08-18T05:25:28;100585.19;;;18.92;67.71
65151;BME280;51918;51.856;0.150;2022-08-18T05:30:29;100583.53;;;18.97;68.19
65151;BME280;51918;51.856;0.150;2022-08-18T05:35:31;100585.59;;;18.89;67.81
65151;BME280;51918;51.856;0.150;2022-08-18T05:40:34;100587.94;;;18.97;67.89
65151;BME280;51918;51.856;0.150;2022-08-18T05:45:36;100582.59;;;18.92;68.30
65151;BME280;51918;51.856;0.150;2022-08-18T05:50:38;100574.91;;;18.97;68.49
65151;BME280;51918;51.856;0.150;2022-08-18T05:55:43;100577.94;;;18.94;68.37
65151;BME280;51918;51.856;0.150;2022-08-18T06:00:47;100569.69;;;18.78;69.39
65151;BME280;51918;51.856;0.150;2022-08-18T06:05:54;100579.69;;;19.00;68.17
65151;BME280;51918;51.856;0.150;2022-08-18T06:10:57;100582.16;;;19.13;68.22
65151;BME280;51918;51.856;0.150;2022-08-18T06:16:03;100581.31;;;19.19;68.33
65151;BME280;51918;51.856;0.150;2022-08-18T06:21:19;100582.03;;;19.26;68.24
65151;BME280;51918;51.856;0.150;2022-08-18T06:31:44;100582.84;;;19.45;67.82
65151;BME280;51918;51.856;0.150;2022-08-18T06:36:53;100590.22;;;19.67;67.12
65151;BME280;51918;51.856;0.150;2022-08-18T06:41:55;100590.41;;;19.84;66.28
65151;BME280;51918;51.856;0.150;2022-08-18T06:46:58;100594.25;;;19.81;66.55
65151;BME280;51918;51.856;0.150;2022-08-18T06:52:19;100579.66;;;19.92;66.71
65151;BME280;51918;51.856;0.150;2022-08-18T06:57:25;100590.97;;;20.16;66.39
65151;BME280;51918;51.856;0.150;2022-08-18T07:02:47;100592.47;;;20.24;65.36
65151;BME280;51918;51.856;0.150;2022-08-18T07:08:14;100582.50;;;20.56;65.62
65151;BME280;51918;51.856;0.150;2022-08-18T07:13:21;100589.69;;;20.73;65.00
65151;BME280;51918;51.856;0.150;2022-08-18T07:18:25;100594.81;;;21.03;63.78
65151;BME280;51918;51.856;0.150;2022-08-18T07:23:30;100606.66;;;21.05;63.61
65151;BME280;51918;51.856;0.150;2022-08-18T07:28:34;100602.97;;;20.95;63.47
65151;BME280;51918;51.856;0.150;2022-08-18T07:33:35;100600.38;;;20.95;63.19
65151;BME280;51918;51.856;0.150;2022-08-18T07:38:40;100599.47;;;20.89;63.25
65151;BME280;51918;51.856;0.150;2022-08-18T07:43:52;100603.09;;;20.88;63.40
65151;BME280;51918;51.856;0.150;2022-08-18T07:48:56;100616.88;;;20.95;63.69
65151;BME280;51918;51.856;0.150;2022-08-18T07:53:59;100625.16;;;20.92;63.48
65151;BME280;51918;51.856;0.150;2022-08-18T07:59:08;100614.25;;;20.83;63.86
65151;BME280;51918;51.856;0.150;2022-08-18T08:04:14;100620.97;;;20.91;64.61
65151;BME280;51918;51.856;0.150;2022-08-18T08:09:22;100630.66;;;21.02;64.42
65151;BME280;51918;51.856;0.150;2022-08-18T08:14:36;100626.78;;;21.17;63.68
65151;BME280;51918;51.856;0.150;2022-08-18T08:20:03;100622.09;;;21.30;63.48
65151;BME280;51918;51.856;0.150;2022-08-18T08:25:17;100613.41;;;21.42;63.02
65151;BME280;51918;51.856;0.150;2022-08-18T08:30:28;100613.63;;;21.52;62.47
65151;BME280;51918;51.856;0.150;2022-08-18T08:35:35;100615.25;;;21.41;61.66
65151;BME280;51918;51.856;0.150;2022-08-18T08:40:45;100620.91;;;21.50;61.68
65151;BME280;51918;51.856;0.150;2022-08-18T08:45:56;100614.53;;;21.46;61.92
65151;BME280;51918;51.856;0.150;2022-08-18T08:51:03;100617.88;;;21.82;61.96
65151;BME280;51918;51.856;0.150;2022-08-18T08:56:11;100618.78;;;22.04;61.68
65151;BME280;51918;51.856;0.150;2022-08-18T09:01:22;100614.22;;;22.28;60.92
65151;BME280;51918;51.856;0.150;2022-08-18T09:06:31;100629.13;;;22.57;60.79
65151;BME280;51918;51.856;0.150;2022-08-18T09:12:07;100616.13;;;22.84;59.33
65151;BME280;51918;51.856;0.150;2022-08-18T09:22:50;100610.63;;;23.90;55.52
65151;BME280;51918;51.856;0.150;2022-08-18T09:28:06;100609.78;;;24.44;56.46
65151;BME280;51918;51.856;0.150;2022-08-18T09:33:22;100608.66;;;25.20;53.55
65151;BME280;51918;51.856;0.150;2022-08-18T09:38:25;100602.06;;;26.27;53.08
65151;BME280;51918;51.856;0.150;2022-08-18T09:43:33;100600.56;;;27.22;50.64
65151;BME280;51918;51.856;0.150;2022-08-18T09:48:38;100602.13;;;28.12;48.85
65151;BME280;51918;51.856;0.150;2022-08-18T10:05:25;100580.09;;;29.94;44.94
65151;BME280;51918;51.856;0.150;2022-08-18T10:10:30;100577.25;;;31.20;42.39
65151;BME280;51918;51.856;0.150;2022-08-18T10:15:40;100571.13;;;31.78;40.29
65151;BME280;51918;51.856;0.150;2022-08-18T10:20:54;100570.72;;;32.47;38.32
65151;BME280;51918;51.856;0.150;2022-08-18T10:25:58;100557.56;;;33.26;36.95
65151;BME280;51918;51.856;0.150;2022-08-18T10:31:01;100550.59;;;33.77;34.33
65151;BME280;51918;51.856;0.150;2022-08-18T10:36:04;100539.88;;;34.03;34.05
65151;BME280;51918;51.856;0.150;2022-08-18T10:41:12;100543.53;;;34.58;33.27
65151;BME280;51918;51.856;0.150;2022-08-18T10:46:21;100526.66;;;34.96;33.10
65151;BME280;51918;51.856;0.150;2022-08-18T10:51:33;100524.88;;;35.00;30.86
65151;BME280;51918;51.856;0.150;2022-08-18T10:56:42;100525.78;;;34.62;32.09
65151;BME280;51918;51.856;0.150;2022-08-18T11:01:53;100521.75;;;34.18;33.01
65151;BME280;51918;51.856;0.150;2022-08-18T11:07:07;100517.97;;;33.72;32.93
65151;BME280;51918;51.856;0.150;2022-08-18T11:12:11;100524.16;;;33.20;33.79
65151;BME280;51918;51.856;0.150;2022-08-18T11:17:18;100526.41;;;32.60;34.03
65151;BME280;51918;51.856;0.150;2022-08-18T11:22:24;100518.03;;;32.27;34.64
65151;BME280;51918;51.856;0.150;2022-08-18T11:27:27;100504.06;;;32.21;36.86
65151;BME280;51918;51.856;0.150;2022-08-18T11:32:30;100487.78;;;33.24;35.10
65151;BME280;51918;51.856;0.150;2022-08-18T11:37:37;100494.06;;;34.22;31.58
65151;BME280;51918;51.856;0.150;2022-08-18T11:42:51;100497.25;;;35.17;30.14
65151;BME280;51918;51.856;0.150;2022-08-18T11:48:08;100484.81;;;36.16;31.55
65151;BME280;51918;51.856;0.150;2022-08-18T11:53:15;100475.34;;;37.00;28.88
65151;BME280;51918;51.856;0.150;2022-08-18T11:58:39;100478.22;;;37.51;26.56
65151;BME280;51918;51.856;0.150;2022-08-18T12:03:43;100465.66;;;37.71;27.13
65151;BME280;51918;51.856;0.150;2022-08-18T12:08:53;100461.13;;;38.07;24.68
65151;BME280;51918;51.856;0.150;2022-08-18T12:14:03;100469.13;;;38.58;24.96
65151;BME280;51918;51.856;0.150;2022-08-18T12:19:06;100470.66;;;38.59;24.49
65151;BME280;51918;51.856;0.150;2022-08-18T12:24:18;100458.38;;;38.58;26.28
65151;BME280;51918;51.856;0.150;2022-08-18T12:29:20;100455.25;;;38.37;24.88
65151;BME280;51918;51.856;0.150;2022-08-18T12:34:23;100435.16;;;38.50;24.96
65151;BME280;51918;51.856;0.150;2022-08-18T12:39:26;100438.06;;;38.80;26.47
65151;BME280;51918;51.856;0.150;2022-08-18T12:44:27;100436.91;;;39.47;24.72
65151;BME280;51918;51.856;0.150;2022-08-18T12:49:28;100439.47;;;39.89;24.02
65151;BME280;51918;51.856;0.150;2022-08-18T12:54:30;100435.22;;;39.88;24.29
65151;BME280;51918;51.856;0.150;2022-08-18T12:59:30;100424.25;;;39.74;24.17
65151;BME280;51918;51.856;0.150;2022-08-18T13:04:31;100415.09;;;39.55;24.12
65151;BME280;51918;51.856;0.150;2022-08-18T13:09:35;100407.41;;;38.85;24.46
65151;BME280;51918;51.856;0.150;2022-08-18T13:14:35;100408.06;;;38.39;24.02
65151;BME280;51918;51.856;0.150;2022-08-18T13:19:36;100416.16;;;38.04;24.60
65151;BME280;51918;51.856;0.150;2022-08-18T13:24:38;100405.13;;;37.58;25.65
65151;BME280;51918;51.856;0.150;2022-08-18T13:29:39;100400.38;;;37.35;25.15
65151;BME280;51918;51.856;0.150;2022-08-18T13:34:39;100401.66;;;37.25;24.93
65151;BME280;51918;51.856;0.150;2022-08-18T13:39:41;100385.75;;;37.32;25.36
65151;BME280;51918;51.856;0.150;2022-08-18T13:44:42;100385.53;;;37.25;24.67
65151;BME280;51918;51.856;0.150;2022-08-18T13:49:42;100385.88;;;36.92;25.19
65151;BME280;51918;51.856;0.150;2022-08-18T13:54:44;100367.94;;;36.80;25.70
65151;BME280;51918;51.856;0.150;2022-08-18T13:59:45;100375.59;;;37.10;24.77
65151;BME280;51918;51.856;0.150;2022-08-18T14:04:45;100378.50;;;36.89;23.83
65151;BME280;51918;51.856;0.150;2022-08-18T14:09:47;100380.69;;;36.43;24.91
65151;BME280;51918;51.856;0.150;2022-08-18T14:14:48;100377.22;;;36.14;24.89
65151;BME280;51918;51.856;0.150;2022-08-18T14:19:49;100373.69;;;35.61;25.56
65151;BME280;51918;51.856;0.150;2022-08-18T14:24:52;100379.00;;;35.24;25.69
65151;BME280;51918;51.856;0.150;2022-08-18T14:29:53;100376.63;;;35.10;26.66
65151;BME280;51918;51.856;0.150;2022-08-18T14:34:54;100373.69;;;35.03;26.75
65151;BME280;51918;51.856;0.150;2022-08-18T14:39:56;100373.06;;;34.73;26.90
65151;BME280;51918;51.856;0.150;2022-08-18T14:44:57;100375.41;;;34.53;26.83
65151;BME280;51918;51.856;0.150;2022-08-18T14:49:57;100365.63;;;33.85;27.26
65151;BME280;51918;51.856;0.150;2022-08-18T14:54:59;100365.19;;;33.45;28.22
65151;BME280;51918;51.856;0.150;2022-08-18T15:00:00;100363.59;;;32.88;28.11
65151;BME280;51918;51.856;0.150;2022-08-18T15:05:10;100364.69;;;32.35;28.91
65151;BME280;51918;51.856;0.150;2022-08-18T15:10:13;100352.75;;;32.06;29.86
65151;BME280;51918;51.856;0.150;2022-08-18T15:15:14;100359.88;;;31.79;29.79
65151;BME280;51918;51.856;0.150;2022-08-18T15:20:16;100351.09;;;31.70;31.48
65151;BME280;51918;51.856;0.150;2022-08-18T15:25:18;100343.47;;;31.15;31.24
65151;BME280;51918;51.856;0.150;2022-08-18T15:30:20;100338.63;;;31.17;31.42
65151;BME280;51918;51.856;0.150;2022-08-18T15:35:20;100340.81;;;30.92;31.82
65151;BME280;51918;51.856;0.150;2022-08-18T15:40:24;100339.81;;;30.57;32.16
65151;BME280;51918;51.856;0.150;2022-08-18T15:45:27;100343.22;;;30.21;32.11
65151;BME280;51918;51.856;0.150;2022-08-18T15:50:31;100335.88;;;30.04;33.18
65151;BME280;51918;51.856;0.150;2022-08-18T15:55:34;100340.69;;;29.88;33.04
65151;BME280;51918;51.856;0.150;2022-08-18T16:00:35;100333.78;;;29.87;32.48
65151;BME280;51918;51.856;0.150;2022-08-18T16:05:38;100343.81;;;29.49;33.29
65151;BME280;51918;51.856;0.150;2022-08-18T16:10:41;100349.03;;;29.54;33.67
65151;BME280;51918;51.856;0.150;2022-08-18T16:15:43;100338.06;;;29.41;32.88
65151;BME280;51918;51.856;0.150;2022-08-18T16:21:02;100326.38;;;29.29;33.62
65151;BME280;51918;51.856;0.150;2022-08-18T16:26:05;100326.69;;;28.94;33.31
65151;BME280;51918;51.856;0.150;2022-08-18T16:31:06;100321.84;;;28.64;33.83
65151;BME280;51918;51.856;0.150;2022-08-18T16:36:08;100316.84;;;28.43;34.36
65151;BME280;51918;51.856;0.150;2022-08-18T16:41:13;100300.00;;;28.15;34.34
65151;BME280;51918;51.856;0.150;2022-08-18T16:46:16;100307.28;;;28.04;34.72
65151;BME280;51918;51.856;0.150;2022-08-18T16:51:20;100312.69;;;27.94;34.61
65151;BME280;51918;51.856;0.150;2022-08-18T16:56:25;100307.34;;;27.75;34.94
65151;BME280;51918;51.856;0.150;2022-08-18T17:01:26;100320.69;;;27.35;35.47
65151;BME280;51918;51.856;0.150;2022-08-18T17:06:27;100324.06;;;27.17;36.04
65151;BME280;51918;51.856;0.150;2022-08-18T17:11:29;100320.38;;;27.08;36.52
65151;BME280;51918;51.856;0.150;2022-08-18T17:16:30;100324.38;;;26.71;37.20
65151;BME280;51918;51.856;0.150;2022-08-18T17:21:31;100317.53;;;26.70;36.87
65151;BME280;51918;51.856;0.150;2022-08-18T17:26:41;100322.91;;;26.49;37.16
65151;BME280;51918;51.856;0.150;2022-08-18T17:31:46;100326.44;;;26.29;37.54
65151;BME280;51918;51.856;0.150;2022-08-18T17:36:52;100310.66;;;26.19;37.60
65151;BME280;51918;51.856;0.150;2022-08-18T17:41:55;100303.63;;;25.99;38.19
65151;BME280;51918;51.856;0.150;2022-08-18T17:46:57;100304.72;;;25.93;38.07
65151;BME280;51918;51.856;0.150;2022-08-18T17:51:58;100306.31;;;25.68;38.22
65151;BME280;51918;51.856;0.150;2022-08-18T17:57:01;100309.03;;;25.48;38.55
65151;BME280;51918;51.856;0.150;2022-08-18T18:02:11;100312.22;;;25.34;39.21
65151;BME280;51918;51.856;0.150;2022-08-18T18:07:23;100311.16;;;25.15;39.54
65151;BME280;51918;51.856;0.150;2022-08-18T18:12:26;100312.97;;;25.20;38.87
65151;BME280;51918;51.856;0.150;2022-08-18T18:17:29;100316.41;;;25.20;40.09
65151;BME280;51918;51.856;0.150;2022-08-18T18:22:30;100318.50;;;25.18;39.80
65151;BME280;51918;51.856;0.150;2022-08-18T18:27:37;100320.63;;;25.11;40.60
65151;BME280;51918;51.856;0.150;2022-08-18T18:32:49;100310.88;;;25.06;40.16
65151;BME280;51918;51.856;0.150;2022-08-18T18:37:52;100314.81;;;24.99;40.50
65151;BME280;51918;51.856;0.150;2022-08-18T18:42:56;100327.44;;;24.86;40.72
65151;BME280;51918;51.856;0.150;2022-08-18T18:48:03;100330.06;;;24.81;40.49
65151;BME280;51918;51.856;0.150;2022-08-18T18:53:21;100322.19;;;24.76;39.96
65151;BME280;51918;51.856;0.150;2022-08-18T18:58:31;100313.22;;;24.67;40.27
65151;BME280;51918;51.856;0.150;2022-08-18T19:03:44;100310.00;;;24.44;41.03
65151;BME280;51918;51.856;0.150;2022-08-18T19:08:48;100299.97;;;24.31;41.09
65151;BME280;51918;51.856;0.150;2022-08-18T19:13:56;100312.00;;;24.11;41.70
65151;BME280;51918;51.856;0.150;2022-08-18T19:19:03;100317.63;;;23.88;42.47
65151;BME280;51918;51.856;0.150;2022-08-18T19:24:11;100323.84;;;23.71;42.49
65151;BME280;51918;51.856;0.150;2022-08-18T19:29:19;100321.63;;;23.53;42.91
65151;BME280;51918;51.856;0.150;2022-08-18T19:34:27;100327.81;;;23.37;43.60
65151;BME280;51918;51.856;0.150;2022-08-18T19:39:34;100332.38;;;23.19;43.91
65151;BME280;51918;51.856;0.150;2022-08-18T19:44:43;100331.44;;;23.03;44.03
65151;BME280;51918;51.856;0.150;2022-08-18T19:49:53;100333.41;;;22.86;44.45
65151;BME280;51918;51.856;0.150;2022-08-18T19:55:02;100342.97;;;22.70;45.07
65151;BME280;51918;51.856;0.150;2022-08-18T20:00:21;100340.09;;;22.49;45.28
65151;BME280;51918;51.856;0.150;2022-08-18T20:05:34;100358.25;;;22.34;46.07
65151;BME280;51918;51.856;0.150;2022-08-18T20:10:57;100350.38;;;22.12;46.54
65151;BME280;51918;51.856;0.150;2022-08-18T20:16:24;100349.91;;;21.98;47.17
65151;BME280;51918;51.856;0.150;2022-08-18T20:21:43;100349.97;;;21.81;48.08
65151;BME280;51918;51.856;0.150;2022-08-18T20:26:46;100347.47;;;21.75;48.03
65151;BME280;51918;51.856;0.150;2022-08-18T20:31:59;100339.09;;;21.56;48.42
65151;BME280;51918;51.856;0.150;2022-08-18T20:37:06;100347.41;;;21.69;48.42
65151;BME280;51918;51.856;0.150;2022-08-18T20:42:45;100337.97;;;21.68;49.26
65151;BME280;51918;51.856;0.150;2022-08-18T20:53:32;100344.78;;;21.69;49.30
65151;BME280;51918;51.856;0.150;2022-08-18T20:58:39;100349.41;;;21.62;50.12
65151;BME280;51918;51.856;0.150;2022-08-18T21:03:42;100350.53;;;21.66;49.71
65151;BME280;51918;51.856;0.150;2022-08-18T21:08:47;100350.75;;;21.48;50.65
65151;BME280;51918;51.856;0.150;2022-08-18T21:13:50;100354.69;;;21.34;51.19
65151;BME280;51918;51.856;0.150;2022-08-18T21:18:54;100352.34;;;21.32;51.29
65151;BME280;51918;51.856;0.150;2022-08-18T21:23:58;100363.75;;;21.26;51.01
65151;BME280;51918;51.856;0.150;2022-08-18T21:29:05;100355.50;;;21.17;51.41
65151;BME280;51918;51.856;0.150;2022-08-18T21:34:09;100354.53;;;21.06;52.26
65151;BME280;51918;51.856;0.150;2022-08-18T21:39:16;100346.44;;;21.08;52.69
65151;BME280;51918;51.856;0.150;2022-08-18T21:44:21;100347.88;;;20.87;53.22
65151;BME280;51918;51.856;0.150;2022-08-18T21:49:24;100347.06;;;20.86;53.01
65151;BME280;51918;51.856;0.150;2022-08-18T21:54:30;100347.63;;;20.88;53.57
65151;BME280;51918;51.856;0.150;2022-08-18T21:59:31;100352.69;;;20.78;54.13
65151;BME280;51918;51.856;0.150;2022-08-18T22:04:34;100359.31;;;20.69;54.10
65151;BME280;51918;51.856;0.150;2022-08-18T22:09:57;100355.94;;;20.57;54.51
65151;BME280;51918;51.856;0.150;2022-08-18T22:15:05;100341.63;;;20.47;54.96
65151;BME280;51918;51.856;0.150;2022-08-18T22:25:45;100334.84;;;20.35;55.57
65151;BME280;51918;51.856;0.150;2022-08-18T22:30:46;100331.59;;;20.27;56.12
65151;BME280;51918;51.856;0.150;2022-08-18T22:35:52;100340.22;;;20.16;56.72
65151;BME280;51918;51.856;0.150;2022-08-18T22:40:54;100346.22;;;20.17;56.48
65151;BME280;51918;51.856;0.150;2022-08-18T22:45:55;100336.00;;;20.15;56.44
65151;BME280;51918;51.856;0.150;2022-08-18T22:50:56;100349.19;;;20.08;56.64
65151;BME280;51918;51.856;0.150;2022-08-18T22:55:58;100351.38;;;19.88;57.82
65151;BME280;51918;51.856;0.150;2022-08-18T23:00:58;100350.81;;;19.86;57.54
65151;BME280;51918;51.856;0.150;2022-08-18T23:05:59;100349.44;;;19.72;58.55
65151;BME280;51918;51.856;0.150;2022-08-18T23:11:01;100349.00;;;19.75;58.15
65151;BME280;51918;51.856;0.150;2022-08-18T23:16:02;100349.00;;;19.75;58.37
65151;BME280;51918;51.856;0.150;2022-08-18T23:21:03;100352.81;;;19.72;58.50
65151;BME280;51918;51.856;0.150;2022-08-18T23:26:05;100355.66;;;19.59;59.25
65151;BME280;51918;51.856;0.150;2022-08-18T23:31:06;100353.16;;;19.52;59.42
65151;BME280;51918;51.856;0.150;2022-08-18T23:36:07;100367.44;;;19.50;60.06
65151;BME280;51918;51.856;0.150;2022-08-18T23:41:11;100357.81;;;19.50;59.71
65151;BME280;51918;51.856;0.150;2022-08-18T23:46:14;100361.66;;;19.47;59.93
65151;BME280;51918;51.856;0.150;2022-08-18T23:51:27;100355.16;;;19.38;60.90
65151;BME280;51918;51.856;0.150;2022-08-18T23:56:30;100356.50;;;19.41;60.39
